Time;durP1;ratioP1;P1;durP2;ratioP2;P2;SDS_P1;SDS_P2;PMS_P1;PMS_P2;Temp;Humidity;BMP_temperature;BMP_pressure;BME280_temperature;BME280_humidity;BME280_pressure;Samples;Min_cycle;Max_cycle;Signal;HPM_P1;HPM_P2
2021/07/24 00:02:21;;;;;;;17.98;11.35;;;;;;;;;;5048871;28;20108;-73
2021/07/24 00:04:46;;;;;;;25.33;12.05;;;;;;;;;;5047544;28;20163;-73
2021/07/24 00:07:12;;;;;;;17.90;12.15;;;;;;;;;;5064236;28;20119;-73
2021/07/24 00:09:37;;;;;;;17.75;11.57;;;;;;;;;;5047202;28;20032;-73
2021/07/24 00:12:03;;;;;;;18.35;12.15;;;;;;;;;;5048682;28;20025;-73
2021/07/24 00:14:29;;;;;;;18.17;11.48;;;;;;;;;;5063720;28;20021;-73
2021/07/24 00:16:54;;;;;;;19.83;11.30;;;;;;;;;;5050609;28;20119;-73
2021/07/24 00:19:20;;;;;;;18.05;13.02;;;;;;;;;;5052386;28;20052;-73
2021/07/24 00:21:45;;;;;;;20.23;13.07;;;;;;;;;;5052746;28;20655;-73
2021/07/24 00:24:11;;;;;;;21.42;13.02;;;;;;;;;;5052762;28;20379;-73
2021/07/24 00:26:36;;;;;;;17.52;12.43;;;;;;;;;;5051080;28;20040;-73
2021/07/24 00:29:05;;;;;;;19.15;11.80;;;;;;;;;;5051164;28;20102;-73
2021/07/24 00:31:32;;;;;;;19.02;11.85;;;;;;;;;;5067785;28;20112;-73
2021/07/24 00:33:57;;;;;;;19.65;12.25;;;;;;;;;;5067816;28;20033;-73
2021/07/24 00:36:23;;;;;;;21.90;11.20;;;;;;;;;;5051087;28;20052;-73
2021/07/24 00:38:48;;;;;;;19.83;11.77;;;;;;;;;;5053654;28;20031;-72
2021/07/24 00:41:23;;;;;;;19.02;12.80;;;;;;;;;;5069392;28;20075;-72
2021/07/24 00:43:50;;;;;;;21.63;11.65;;;;;;;;;;5052205;28;20427;-73
2021/07/24 00:46:17;;;;;;;20.17;12.43;;;;;;;;;;5050677;28;20028;-73
2021/07/24 00:48:44;;;;;;;16.85;11.93;;;;;;;;;;5050709;28;20024;-74
2021/07/24 00:51:10;;;;;;;18.85;12.43;;;;;;;;;;5050791;28;20069;-72
2021/07/24 00:53:36;;;;;;;20.80;12.95;;;;;;;;;;5052271;28;20025;-73
2021/07/24 00:56:04;;;;;;;17.58;12.68;;;;;;;;;;5067620;28;20063;-74
2021/07/24 00:58:35;;;;;;;21.33;12.13;;;;;;;;;;5050426;28;20108;-74
2021/07/24 01:01:02;;;;;;;19.27;12.45;;;;;;;;;;5067091;28;20062;-74
2021/07/24 01:03:28;;;;;;;23.85;13.00;;;;;;;;;;5066967;28;20072;-74
2021/07/24 01:05:56;;;;;;;18.17;11.73;;;;;;;;;;5052235;28;20045;-73
2021/07/24 01:08:23;;;;;;;20.98;13.30;;;;;;;;;;5049923;28;20082;-73
2021/07/24 01:10:50;;;;;;;26.05;13.80;;;;;;;;;;5051663;28;20104;-73
2021/07/24 01:13:17;;;;;;;28.23;12.77;;;;;;;;;;5051975;28;20020;-73
2021/07/24 01:15:52;;;;;;;20.27;13.20;;;;;;;;;;5051813;28;20060;-73
2021/07/24 01:18:18;;;;;;;22.00;12.35;;;;;;;;;;5050463;28;20040;-73
2021/07/24 01:20:45;;;;;;;25.73;13.23;;;;;;;;;;5066822;28;20037;-74
2021/07/24 01:23:13;;;;;;;26.90;13.90;;;;;;;;;;5051526;28;20033;-74
2021/07/24 01:25:46;;;;;;;21.55;12.85;;;;;;;;;;5051219;28;20017;-73
2021/07/24 01:28:12;;;;;;;19.38;12.60;;;;;;;;;;5049802;28;20604;-73
2021/07/24 01:30:39;;;;;;;20.02;12.57;;;;;;;;;;5049825;28;20147;-74
2021/07/24 01:33:05;;;;;;;19.65;13.15;;;;;;;;;;5049999;28;20108;-73
2021/07/24 01:35:31;;;;;;;19.88;13.35;;;;;;;;;;5066285;28;20634;-74
2021/07/24 01:37:56;;;;;;;21.10;12.80;;;;;;;;;;5050100;28;20029;-73
2021/07/24 01:40:22;;;;;;;24.77;13.38;;;;;;;;;;5051004;28;20159;-73
2021/07/24 01:42:47;;;;;;;23.88;14.07;;;;;;;;;;5051115;28;20025;-73
2021/07/24 01:45:13;;;;;;;24.08;13.68;;;;;;;;;;5051169;28;20389;-73
2021/07/24 01:47:38;;;;;;;20.80;12.55;;;;;;;;;;5066302;28;20446;-73
2021/07/24 01:52:51;;;;;;;23.15;13.23;;;;;;;;;;5051253;28;20082;-75
2021/07/24 01:55:20;;;;;;;24.50;13.90;;;;;;;;;;5049672;28;20021;-74
2021/07/24 01:57:48;;;;;;;24.65;13.82;;;;;;;;;;5066201;28;20021;-74
2021/07/24 02:00:16;;;;;;;19.73;12.48;;;;;;;;;;5050870;28;20476;-74
2021/07/24 02:02:45;;;;;;;21.38;12.93;;;;;;;;;;5049324;28;20637;-74
2021/07/24 02:05:23;;;;;;;23.27;13.13;;;;;;;;;;5051107;28;20021;-74
2021/07/24 02:07:49;;;;;;;26.40;13.73;;;;;;;;;;5049581;28;20025;-74
2021/07/24 02:10:14;;;;;;;20.27;14.70;;;;;;;;;;5050747;28;20090;-74
2021/07/24 02:12:40;;;;;;;23.73;13.00;;;;;;;;;;5065770;28;20066;-74
2021/07/24 02:15:06;;;;;;;20.10;13.60;;;;;;;;;;5065803;28;20415;-75
2021/07/24 02:17:32;;;;;;;21.02;13.43;;;;;;;;;;5048886;28;20272;-72
2021/07/24 02:19:58;;;;;;;22.50;13.05;;;;;;;;;;5048983;28;20035;-73
2021/07/24 02:22:23;;;;;;;21.55;14.07;;;;;;;;;;5048657;28;20033;-73
2021/07/24 02:24:49;;;;;;;23.20;14.13;;;;;;;;;;5065628;28;20040;-73
2021/07/24 02:27:15;;;;;;;23.17;13.48;;;;;;;;;;5050553;28;20025;-73
2021/07/24 02:29:40;;;;;;;29.60;15.45;;;;;;;;;;5048723;28;20017;-73
2021/07/24 02:32:06;;;;;;;25.50;13.45;;;;;;;;;;5050234;28;20099;-73
2021/07/24 02:34:31;;;;;;;31.70;14.65;;;;;;;;;;5065139;28;20025;-73
2021/07/24 02:36:57;;;;;;;21.48;13.63;;;;;;;;;;5049774;28;20045;-73
2021/07/24 02:39:22;;;;;;;22.02;12.60;;;;;;;;;;5064476;28;20029;-73
2021/07/24 02:41:48;;;;;;;23.10;14.48;;;;;;;;;;5065244;28;20078;-73
2021/07/24 02:44:13;;;;;;;20.15;12.60;;;;;;;;;;5065357;28;20543;-73
2021/07/24 02:46:39;;;;;;;21.13;12.75;;;;;;;;;;5065039;28;20395;-73
2021/07/24 02:49:06;;;;;;;19.92;13.60;;;;;;;;;;5049877;28;20036;-73
2021/07/24 02:51:32;;;;;;;33.72;13.95;;;;;;;;;;5049596;28;20037;-73
2021/07/24 02:53:58;;;;;;;20.60;12.18;;;;;;;;;;5049948;28;20029;-73
2021/07/24 02:56:23;;;;;;;18.67;13.40;;;;;;;;;;5048275;28;20380;-73
2021/07/24 02:58:49;;;;;;;20.10;12.13;;;;;;;;;;5049743;28;20078;-73
2021/07/24 03:01:14;;;;;;;37.40;14.52;;;;;;;;;;5064980;28;20120;-72
2021/07/24 03:03:40;;;;;;;23.08;13.02;;;;;;;;;;5064659;28;20025;-73
2021/07/24 03:06:05;;;;;;;32.05;13.35;;;;;;;;;;5048392;28;20028;-74
2021/07/24 03:08:30;;;;;;;21.58;12.38;;;;;;;;;;5049304;28;20025;-74
2021/07/24 03:10:56;;;;;;;22.63;13.65;;;;;;;;;;5049299;28;20013;-73
2021/07/24 03:13:21;;;;;;;23.83;14.13;;;;;;;;;;5064675;28;20036;-74
2021/07/24 03:15:47;;;;;;;22.15;12.57;;;;;;;;;;5049442;28;20025;-74
2021/07/24 03:18:12;;;;;;;22.42;13.20;;;;;;;;;;5047995;28;20025;-73
2021/07/24 03:20:38;;;;;;;21.55;12.77;;;;;;;;;;5047905;28;20115;-73
2021/07/24 03:23:03;;;;;;;26.25;13.07;;;;;;;;;;5049374;28;20036;-73
2021/07/24 03:25:29;;;;;;;21.85;12.40;;;;;;;;;;5064488;28;20052;-73
2021/07/24 03:27:55;;;;;;;20.00;11.82;;;;;;;;;;5049168;28;20056;-73
2021/07/24 03:30:21;;;;;;;23.63;12.45;;;;;;;;;;5047723;28;20021;-72
2021/07/24 03:32:46;;;;;;;20.25;12.88;;;;;;;;;;5048779;28;20501;-73
2021/07/24 03:35:12;;;;;;;17.98;11.68;;;;;;;;;;5047522;28;20038;-73
2021/07/24 03:37:37;;;;;;;24.08;12.68;;;;;;;;;;5064487;28;20029;-73
2021/07/24 03:40:03;;;;;;;21.02;12.52;;;;;;;;;;5048022;28;20037;-72
2021/07/24 03:42:29;;;;;;;20.60;12.52;;;;;;;;;;5064461;28;20036;-73
2021/07/24 03:44:55;;;;;;;19.30;13.07;;;;;;;;;;5049393;28;20032;-74
2021/07/24 03:47:21;;;;;;;23.17;12.93;;;;;;;;;;5049507;28;20369;-73
2021/07/24 03:49:47;;;;;;;21.10;13.23;;;;;;;;;;5048889;28;20028;-72
2021/07/24 03:52:12;;;;;;;20.67;12.98;;;;;;;;;;5068192;28;20037;-72
2021/07/24 03:54:39;;;;;;;19.05;12.85;;;;;;;;;;5052834;28;20052;-73
2021/07/24 03:57:04;;;;;;;30.08;14.20;;;;;;;;;;5051783;28;20479;-73
2021/07/24 03:59:30;;;;;;;19.48;13.00;;;;;;;;;;5051418;28;20037;-73
2021/07/24 04:01:57;;;;;;;22.17;12.82;;;;;;;;;;5053443;28;20356;-73
2021/07/24 04:04:23;;;;;;;24.70;13.15;;;;;;;;;;5068651;28;20529;-73
2021/07/24 04:06:51;;;;;;;18.17;12.82;;;;;;;;;;5052835;28;20033;-73
2021/07/24 04:09:16;;;;;;;23.48;13.38;;;;;;;;;;5068342;28;20033;-73
2021/07/24 04:11:43;;;;;;;24.33;13.70;;;;;;;;;;5068169;28;20399;-73
2021/07/24 04:14:08;;;;;;;21.38;13.15;;;;;;;;;;5052953;28;20108;-74
2021/07/24 04:16:34;;;;;;;27.85;13.43;;;;;;;;;;5068221;28;20119;-73
2021/07/24 04:19:00;;;;;;;22.20;13.25;;;;;;;;;;5067996;28;20021;-74
2021/07/24 04:21:26;;;;;;;19.63;12.35;;;;;;;;;;5051473;28;20123;-74
2021/07/24 04:23:51;;;;;;;21.92;13.18;;;;;;;;;;5053007;28;20111;-73
2021/07/24 04:26:17;;;;;;;19.33;12.65;;;;;;;;;;5052824;28;20032;-74
2021/07/24 04:28:43;;;;;;;18.08;12.75;;;;;;;;;;5051017;28;20047;-74
2021/07/24 04:31:16;;;;;;;22.60;14.00;;;;;;;;;;5067787;28;20060;-74
2021/07/24 04:33:42;;;;;;;20.40;13.30;;;;;;;;;;5052536;28;20029;-73
2021/07/24 04:36:12;;;;;;;21.55;13.80;;;;;;;;;;5052334;28;20052;-73
2021/07/24 04:38:37;;;;;;;23.42;13.40;;;;;;;;;;5067442;28;20032;-73
2021/07/24 04:41:03;;;;;;;22.38;12.65;;;;;;;;;;5050769;28;20059;-73
2021/07/24 04:43:28;;;;;;;24.00;12.98;;;;;;;;;;5050595;28;20025;-74
2021/07/24 04:45:54;;;;;;;28.40;13.35;;;;;;;;;;5052115;28;20035;-73
2021/07/24 04:48:20;;;;;;;19.42;13.07;;;;;;;;;;5052101;28;20033;-74
2021/07/24 04:50:52;;;;;;;21.58;12.93;;;;;;;;;;5067585;28;20025;-74
2021/07/24 04:53:18;;;;;;;21.23;13.13;;;;;;;;;;5052097;28;20033;-73
2021/07/24 04:55:46;;;;;;;24.10;13.43;;;;;;;;;;5050471;28;20115;-73
2021/07/24 04:58:12;;;;;;;25.05;15.10;;;;;;;;;;5050790;28;20124;-73
2021/07/24 05:00:40;;;;;;;22.55;13.45;;;;;;;;;;5033802;28;20061;-73
2021/07/24 05:03:06;;;;;;;22.88;13.63;;;;;;;;;;5051958;28;20029;-73
2021/07/24 05:05:34;;;;;;;21.38;12.98;;;;;;;;;;5052131;28;20033;-72
2021/07/24 05:08:00;;;;;;;23.10;14.07;;;;;;;;;;5067128;28;20199;-73
2021/07/24 05:10:26;;;;;;;23.00;13.43;;;;;;;;;;5067225;28;20104;-73
2021/07/24 05:12:51;;;;;;;20.85;12.50;;;;;;;;;;5066892;28;20035;-73
2021/07/24 05:15:17;;;;;;;19.48;12.82;;;;;;;;;;5051613;28;20061;-73
2021/07/24 05:17:42;;;;;;;24.10;13.75;;;;;;;;;;5066885;28;20064;-73
2021/07/24 05:20:09;;;;;;;20.98;12.55;;;;;;;;;;5051542;28;20446;-72
2021/07/24 05:22:34;;;;;;;22.98;13.02;;;;;;;;;;5051268;28;20024;-72
2021/07/24 05:24:59;;;;;;;23.75;13.50;;;;;;;;;;5050076;28;20491;-72
2021/07/24 05:27:25;;;;;;;23.27;13.80;;;;;;;;;;5066690;28;20059;-73
2021/07/24 05:29:50;;;;;;;20.73;13.05;;;;;;;;;;5050044;28;20492;-72
2021/07/24 05:32:17;;;;;;;23.55;14.10;;;;;;;;;;5051409;28;20060;-73
2021/07/24 05:34:42;;;;;;;25.13;13.50;;;;;;;;;;5051506;28;20116;-74
2021/07/24 05:37:08;;;;;;;19.15;12.13;;;;;;;;;;5049849;28;20564;-74
2021/07/24 05:39:33;;;;;;;22.23;13.13;;;;;;;;;;5066296;28;20025;-74
2021/07/24 05:41:59;;;;;;;23.48;13.82;;;;;;;;;;5051194;28;20032;-73
2021/07/24 05:44:24;;;;;;;21.58;13.82;;;;;;;;;;5066554;28;20021;-73
2021/07/24 05:46:50;;;;;;;30.67;14.93;;;;;;;;;;5066253;28;20102;-73
2021/07/24 05:49:15;;;;;;;20.75;12.98;;;;;;;;;;5049709;28;20327;-74
2021/07/24 05:51:41;;;;;;;20.85;13.75;;;;;;;;;;5050769;28;20024;-73
2021/07/24 05:54:10;;;;;;;29.98;13.82;;;;;;;;;;5051280;28;20305;-73
2021/07/24 05:56:36;;;;;;;20.65;12.90;;;;;;;;;;5066136;28;20056;-74
2021/07/24 05:59:05;;;;;;;36.72;14.90;;;;;;;;;;5051161;28;20053;-74
2021/07/24 06:01:30;;;;;;;21.05;12.32;;;;;;;;;;5049643;28;20025;-74
2021/07/24 06:03:56;;;;;;;28.40;24.75;;;;;;;;;;5049709;28;20025;-72
2021/07/24 06:06:22;;;;;;;21.05;12.75;;;;;;;;;;5066153;28;20044;-74
2021/07/24 06:08:47;;;;;;;18.33;12.00;;;;;;;;;;5065819;28;20361;-73
2021/07/24 06:11:13;;;;;;;20.77;12.25;;;;;;;;;;5050655;28;20025;-74
2021/07/24 06:13:38;;;;;;;26.00;13.68;;;;;;;;;;5031582;28;20455;-73
2021/07/24 06:16:04;;;;;;;32.40;13.80;;;;;;;;;;5050642;28;20401;-73
2021/07/24 06:18:30;;;;;;;17.90;12.35;;;;;;;;;;5049180;28;20330;-73
2021/07/24 06:20:56;;;;;;;21.67;13.25;;;;;;;;;;5050563;28;20100;-73
2021/07/24 06:23:21;;;;;;;23.08;12.27;;;;;;;;;;5050704;28;20028;-74
2021/07/24 06:25:49;;;;;;;19.60;12.15;;;;;;;;;;5050608;28;20044;-73
2021/07/24 06:28:16;;;;;;;26.63;13.60;;;;;;;;;;5065558;28;20432;-73
2021/07/24 06:30:42;;;;;;;19.42;12.15;;;;;;;;;;5048943;28;20112;-73
2021/07/24 06:33:07;;;;;;;19.88;12.27;;;;;;;;;;5048898;28;20108;-74
2021/07/24 06:35:33;;;;;;;18.60;12.57;;;;;;;;;;5049626;28;20060;-74
2021/07/24 06:37:59;;;;;;;28.00;12.27;;;;;;;;;;5048392;28;20021;-74
2021/07/24 06:40:25;;;;;;;21.88;11.95;;;;;;;;;;5049905;28;20538;-74
2021/07/24 06:42:52;;;;;;;22.13;12.27;;;;;;;;;;5048530;28;20405;-74
2021/07/24 06:45:17;;;;;;;23.55;11.88;;;;;;;;;;5048599;28;20494;-73
2021/07/24 06:47:43;;;;;;;18.63;11.75;;;;;;;;;;5049645;28;20021;-74
2021/07/24 06:50:09;;;;;;;16.17;10.98;;;;;;;;;;5049908;28;20025;-72
2021/07/24 06:52:34;;;;;;;21.60;11.60;;;;;;;;;;5049874;28;20347;-74
2021/07/24 06:55:00;;;;;;;21.92;12.35;;;;;;;;;;5048289;28;20039;-74
2021/07/24 06:57:25;;;;;;;73.55;15.43;;;;;;;;;;5049841;28;20029;-74
2021/07/24 06:59:55;;;;;;;32.78;12.82;;;;;;;;;;5049713;28;20025;-73
2021/07/24 07:02:23;;;;;;;18.40;11.13;;;;;;;;;;5048204;28;20029;-74
2021/07/24 07:04:50;;;;;;;24.15;11.75;;;;;;;;;;5049690;28;20508;-74
2021/07/24 07:07:20;;;;;;;35.35;12.60;;;;;;;;;;5064937;28;20031;-74
2021/07/24 07:09:47;;;;;;;27.17;11.88;;;;;;;;;;5049451;28;20020;-74
2021/07/24 07:12:12;;;;;;;24.95;12.95;;;;;;;;;;5064939;28;20431;-73
2021/07/24 07:14:38;;;;;;;19.05;11.73;;;;;;;;;;5047910;28;20036;-74
2021/07/24 07:17:03;;;;;;;18.30;11.23;;;;;;;;;;5049593;28;20032;-74
2021/07/24 07:19:30;;;;;;;19.70;11.63;;;;;;;;;;5048081;28;20029;-74
2021/07/24 07:21:56;;;;;;;20.05;12.05;;;;;;;;;;5064268;28;20028;-74
2021/07/24 07:24:22;;;;;;;22.05;11.68;;;;;;;;;;5031224;28;20547;-74
2021/07/24 07:26:48;;;;;;;20.00;11.40;;;;;;;;;;5048108;28;20032;-74
2021/07/24 07:29:13;;;;;;;22.77;12.88;;;;;;;;;;5064352;28;20480;-72
2021/07/24 07:31:39;;;;;;;14.38;10.25;;;;;;;;;;5064060;28;20472;-72
2021/07/24 07:34:04;;;;;;;17.35;11.02;;;;;;;;;;5048967;28;20025;-72
2021/07/24 07:36:30;;;;;;;22.90;10.88;;;;;;;;;;5048929;28;20495;-72
2021/07/24 07:38:56;;;;;;;17.67;9.68;;;;;;;;;;5048878;28;20050;-73
2021/07/24 07:41:22;;;;;;;15.07;10.55;;;;;;;;;;5047634;28;20028;-72
2021/07/24 07:43:48;;;;;;;17.92;10.60;;;;;;;;;;5049047;28;20040;-73
2021/07/24 07:46:14;;;;;;;16.58;10.45;;;;;;;;;;5048870;28;20075;-73
2021/07/24 07:48:40;;;;;;;26.67;12.38;;;;;;;;;;5048421;28;20033;-74
2021/07/24 07:51:07;;;;;;;32.38;11.77;;;;;;;;;;5048694;28;20025;-73
2021/07/24 07:53:33;;;;;;;19.00;10.43;;;;;;;;;;5048938;28;20104;-73
2021/07/24 07:56:00;;;;;;;16.55;10.05;;;;;;;;;;5048436;28;20033;-74
2021/07/24 07:58:25;;;;;;;18.35;10.05;;;;;;;;;;5047504;28;20484;-73
2021/07/24 08:00:52;;;;;;;14.80;10.07;;;;;;;;;;5048740;28;20025;-74
2021/07/24 08:03:19;;;;;;;21.75;11.30;;;;;;;;;;5047782;28;20147;-74
2021/07/24 08:05:45;;;;;;;16.73;10.45;;;;;;;;;;5048846;28;20025;-74
2021/07/24 08:08:11;;;;;;;16.83;9.85;;;;;;;;;;5048014;28;20369;-74
2021/07/24 08:10:36;;;;;;;20.60;10.30;;;;;;;;;;5048940;28;20021;-74
2021/07/24 08:13:13;;;;;;;16.65;10.20;;;;;;;;;;5064015;28;20036;-74
2021/07/24 08:15:38;;;;;;;16.50;10.50;;;;;;;;;;5048799;28;20081;-73
2021/07/24 08:18:04;;;;;;;14.43;9.55;;;;;;;;;;5048283;28;20472;-73
2021/07/24 08:20:29;;;;;;;15.50;10.52;;;;;;;;;;5048223;28;20551;-74
2021/07/24 08:22:55;;;;;;;19.77;10.70;;;;;;;;;;5046928;28;20025;-73
2021/07/24 08:25:20;;;;;;;20.20;10.63;;;;;;;;;;5047065;28;20037;-73
2021/07/24 08:27:46;;;;;;;19.38;12.82;;;;;;;;;;5046917;28;20079;-74
2021/07/24 08:30:12;;;;;;;18.10;10.35;;;;;;;;;;5047128;28;20071;-74
2021/07/24 08:32:37;;;;;;;19.05;10.88;;;;;;;;;;5047424;28;20392;-74
2021/07/24 08:35:03;;;;;;;29.73;11.85;;;;;;;;;;5063409;28;20187;-73
2021/07/24 08:37:31;;;;;;;15.27;9.60;;;;;;;;;;5050759;28;20049;-74
2021/07/24 08:39:56;;;;;;;21.60;10.00;;;;;;;;;;5051953;28;20500;-74
2021/07/24 08:42:31;;;;;;;17.25;10.50;;;;;;;;;;5052112;28;20044;-74
2021/07/24 08:44:59;;;;;;;19.90;10.82;;;;;;;;;;5067003;28;20025;-74
2021/07/24 08:47:24;;;;;;;24.58;11.23;;;;;;;;;;5052061;28;20071;-74
2021/07/24 08:49:50;;;;;;;17.90;10.85;;;;;;;;;;5067195;28;20089;-74
2021/07/24 08:52:19;;;;;;;14.82;10.98;;;;;;;;;;5050536;28;20145;-74
2021/07/24 08:54:44;;;;;;;18.70;11.45;;;;;;;;;;5051671;28;20021;-74
2021/07/24 08:57:13;;;;;;;21.90;11.65;;;;;;;;;;5067823;28;20385;-73
2021/07/24 08:59:40;;;;;;;18.30;9.93;;;;;;;;;;5051954;28;20384;-74
2021/07/24 09:02:09;;;;;;;38.97;12.63;;;;;;;;;;5050172;28;20083;-75
2021/07/24 09:04:36;;;;;;;21.25;10.52;;;;;;;;;;5067124;28;20472;-75
2021/07/24 09:07:05;;;;;;;15.32;10.15;;;;;;;;;;5050483;28;20507;-74
2021/07/24 09:09:32;;;;;;;21.20;11.02;;;;;;;;;;5050816;28;20025;-74
2021/07/24 09:11:58;;;;;;;22.15;11.00;;;;;;;;;;5051426;28;20033;-74
2021/07/24 09:14:24;;;;;;;15.95;10.23;;;;;;;;;;5050595;28;20029;-74
2021/07/24 09:16:50;;;;;;;22.63;10.32;;;;;;;;;;5051749;28;20104;-74
2021/07/24 09:19:17;;;;;;;14.82;9.85;;;;;;;;;;5051573;28;20025;-72
2021/07/24 09:21:43;;;;;;;14.80;10.75;;;;;;;;;;5051588;28;20037;-73
2021/07/24 09:24:20;;;;;;;15.75;10.27;;;;;;;;;;5049850;28;20393;-74
2021/07/24 09:26:46;;;;;;;13.65;10.02;;;;;;;;;;5049712;28;20162;-74
2021/07/24 09:29:17;;;;;;;11.73;9.43;;;;;;;;;;5033309;28;20029;-74
2021/07/24 09:31:43;;;;;;;19.17;10.80;;;;;;;;;;5050222;28;20055;-74
2021/07/24 09:34:10;;;;;;;16.30;9.60;;;;;;;;;;5051023;28;20082;-74
2021/07/24 09:36:37;;;;;;;20.05;10.60;;;;;;;;;;5049704;28;20045;-74
2021/07/24 09:39:16;;;;;;;20.75;12.25;;;;;;;;;;5051529;28;20076;-74
2021/07/24 09:41:47;;;;;;;15.60;9.35;;;;;;;;;;5066739;28;20083;-73
2021/07/24 09:44:29;;;;;;;14.63;9.50;;;;;;;;;;5049672;28;20043;-73
2021/07/24 09:46:55;;;;;;;16.73;9.95;;;;;;;;;;5050767;28;20240;-74
2021/07/24 09:49:35;;;;;;;14.02;9.80;;;;;;;;;;5048327;28;20021;-74
2021/07/24 09:52:11;;;;;;;11.32;8.70;;;;;;;;;;5049394;28;20124;-74
2021/07/24 09:54:38;;;;;;;11.75;9.52;;;;;;;;;;5050845;28;20033;-73
2021/07/24 09:57:03;;;;;;;15.43;9.70;;;;;;;;;;5048975;28;20029;-74
2021/07/24 09:59:33;;;;;;;17.30;9.77;;;;;;;;;;5049225;28;20021;-74
2021/07/24 10:02:02;;;;;;;13.23;9.38;;;;;;;;;;5049055;28;20029;-74
2021/07/24 10:04:28;;;;;;;12.45;8.80;;;;;;;;;;5049156;28;20039;-73
2021/07/24 10:06:56;;;;;;;12.73;8.40;;;;;;;;;;5050706;28;20027;-74
2021/07/24 10:09:27;;;;;;;13.38;8.30;;;;;;;;;;5049129;28;20075;-74
2021/07/24 10:11:54;;;;;;;17.05;9.32;;;;;;;;;;5049153;28;20532;-72
2021/07/24 10:14:21;;;;;;;16.75;9.82;;;;;;;;;;5050502;28;20060;-73
2021/07/24 10:16:47;;;;;;;16.27;9.73;;;;;;;;;;5048749;28;20025;-75
2021/07/24 10:19:14;;;;;;;12.63;9.30;;;;;;;;;;5050379;28;20044;-74
2021/07/24 10:21:39;;;;;;;13.93;9.02;;;;;;;;;;5049059;28;20119;-73
2021/07/24 10:24:05;;;;;;;15.43;9.00;;;;;;;;;;5050083;28;20120;-74
2021/07/24 10:26:33;;;;;;;13.18;8.10;;;;;;;;;;5050793;28;20025;-74
2021/07/24 10:29:16;;;;;;;13.98;8.63;;;;;;;;;;5048584;28;20249;-73
2021/07/24 10:31:53;;;;;;;20.52;9.25;;;;;;;;;;5048857;28;20412;-74
2021/07/24 10:34:29;;;;;;;10.90;8.18;;;;;;;;;;5065463;28;20472;-74
2021/07/24 10:36:54;;;;;;;11.80;8.30;;;;;;;;;;5048295;28;20053;-73
2021/07/24 10:39:21;;;;;;;12.25;8.82;;;;;;;;;;5049896;28;20106;-73
2021/07/24 10:41:52;;;;;;;15.00;9.00;;;;;;;;;;5048637;28;20090;-74
2021/07/24 10:44:42;;;;;;;15.18;9.05;;;;;;;;;;5050004;28;20105;-74
2021/07/24 10:47:14;;;;;;;14.98;8.13;;;;;;;;;;5049531;28;20136;-74
2021/07/24 10:49:46;;;;;;;13.60;8.13;;;;;;;;;;5048350;28;20419;-74
2021/07/24 10:52:11;;;;;;;14.18;8.30;;;;;;;;;;5049813;28;20036;-74
2021/07/24 10:54:55;;;;;;;12.57;8.82;;;;;;;;;;5048230;28;20025;-75
2021/07/24 10:57:56;;;;;;;10.05;8.25;;;;;;;;;;5049708;28;20151;-74
2021/07/24 11:00:22;;;;;;;15.07;8.73;;;;;;;;;;5047572;28;20075;-73
2021/07/24 11:02:49;;;;;;;13.02;9.07;;;;;;;;;;5049711;28;20439;-74
2021/07/24 11:05:23;;;;;;;12.20;7.72;;;;;;;;;;5049848;28;20524;-74
2021/07/24 11:07:49;;;;;;;10.13;8.07;;;;;;;;;;5048687;28;20071;-75
2021/07/24 11:10:16;;;;;;;14.23;8.45;;;;;;;;;;5049708;28;20048;-74
2021/07/24 11:12:41;;;;;;;12.77;8.23;;;;;;;;;;5050012;28;20108;-75
2021/07/24 11:15:08;;;;;;;8.80;7.32;;;;;;;;;;5049158;28;20104;-74
2021/07/24 11:17:34;;;;;;;16.67;8.30;;;;;;;;;;5049525;28;20033;-75
2021/07/24 11:19:59;;;;;;;11.10;7.95;;;;;;;;;;5047837;28;20029;-74
2021/07/24 11:22:27;;;;;;;11.93;8.20;;;;;;;;;;5048325;28;20039;-75
2021/07/24 11:24:52;;;;;;;11.35;8.93;;;;;;;;;;5047948;28;20032;-74
2021/07/24 11:27:30;;;;;;;11.27;8.50;;;;;;;;;;5048056;28;20082;-75
2021/07/24 11:30:10;;;;;;;19.70;9.05;;;;;;;;;;5049217;28;20044;-74
2021/07/24 11:32:40;;;;;;;12.52;8.18;;;;;;;;;;5048088;28;20029;-73
2021/07/24 11:35:12;;;;;;;9.63;7.47;;;;;;;;;;5048380;28;20041;-73
2021/07/24 11:37:45;;;;;;;11.63;7.90;;;;;;;;;;5047883;28;20571;-73
2021/07/24 11:40:19;;;;;;;10.00;7.88;;;;;;;;;;5048897;28;20021;-73
2021/07/24 11:43:04;;;;;;;15.23;7.72;;;;;;;;;;5049057;28;20052;-74
2021/07/24 11:45:40;;;;;;;12.77;9.13;;;;;;;;;;5048791;28;20025;-74
2021/07/24 11:48:12;;;;;;;14.52;7.55;;;;;;;;;;5047480;28;20035;-74
2021/07/24 11:50:39;;;;;;;10.85;7.70;;;;;;;;;;5047597;28;20025;-74
2021/07/24 11:53:05;;;;;;;9.65;7.60;;;;;;;;;;5047438;28;20044;-73
2021/07/24 11:55:34;;;;;;;19.73;7.75;;;;;;;;;;5049045;28;20029;-73
2021/07/24 11:58:06;;;;;;;11.02;7.82;;;;;;;;;;5047598;28;20021;-74
2021/07/24 12:00:37;;;;;;;9.50;7.57;;;;;;;;;;5047410;28;20357;-74
2021/07/24 12:03:30;;;;;;;11.30;7.88;;;;;;;;;;5048680;28;20219;-73
2021/07/24 12:06:12;;;;;;;15.88;8.27;;;;;;;;;;5046654;28;20035;-76
2021/07/24 12:08:45;;;;;;;13.90;8.13;;;;;;;;;;5048940;28;20025;-73
2021/07/24 12:11:15;;;;;;;8.50;7.35;;;;;;;;;;5047583;28;20021;-73
2021/07/24 12:13:42;;;;;;;10.38;7.82;;;;;;;;;;5053260;28;20025;-73
2021/07/24 12:16:09;;;;;;;10.88;7.75;;;;;;;;;;5051164;28;20024;-73
2021/07/24 12:18:41;;;;;;;12.23;7.53;;;;;;;;;;5052704;28;20029;-74
2021/07/24 12:21:15;;;;;;;14.88;8.15;;;;;;;;;;5051190;28;20388;-74
2021/07/24 12:23:54;;;;;;;12.57;7.70;;;;;;;;;;5052912;28;20055;-74
2021/07/24 12:26:22;;;;;;;9.10;6.70;;;;;;;;;;5034572;28;20071;-74
2021/07/24 12:28:47;;;;;;;9.50;7.72;;;;;;;;;;5052964;28;20415;-74
2021/07/24 12:31:21;;;;;;;13.25;8.15;;;;;;;;;;5050990;28;20082;-74
2021/07/24 12:33:48;;;;;;;12.93;9.20;;;;;;;;;;5051093;28;20112;-75
2021/07/24 12:36:15;;;;;;;12.73;8.70;;;;;;;;;;5050922;28;21037;-74
2021/07/24 12:38:41;;;;;;;13.02;7.90;;;;;;;;;;5052423;28;20025;-74
2021/07/24 12:41:07;;;;;;;9.60;8.02;;;;;;;;;;5050863;28;20062;-73
2021/07/24 12:43:33;;;;;;;16.13;8.18;;;;;;;;;;5050632;28;20079;-73
2021/07/24 12:46:14;;;;;;;9.27;7.85;;;;;;;;;;5050605;28;20028;-74
2021/07/24 12:48:45;;;;;;;11.50;7.93;;;;;;;;;;5052063;28;20079;-74
2021/07/24 12:51:17;;;;;;;11.80;7.82;;;;;;;;;;5050394;28;20461;-75
2021/07/24 12:53:51;;;;;;;12.00;8.00;;;;;;;;;;5050484;28;20052;-74
2021/07/24 12:56:20;;;;;;;13.55;8.45;;;;;;;;;;5052179;28;20052;-73
2021/07/24 12:58:46;;;;;;;14.77;7.88;;;;;;;;;;5050481;28;20029;-74
2021/07/24 13:01:16;;;;;;;13.88;7.82;;;;;;;;;;5050152;28;20044;-73
2021/07/24 13:03:44;;;;;;;12.55;7.82;;;;;;;;;;5051776;28;20017;-74
2021/07/24 13:06:13;;;;;;;9.57;7.50;;;;;;;;;;5051657;28;20060;-74
2021/07/24 13:08:39;;;;;;;12.15;9.13;;;;;;;;;;5051805;28;20457;-74
2021/07/24 13:11:07;;;;;;;9.48;7.82;;;;;;;;;;5051380;28;20067;-75
2021/07/24 13:13:33;;;;;;;10.25;7.82;;;;;;;;;;5050027;28;20048;-74
2021/07/24 13:15:58;;;;;;;47.67;10.85;;;;;;;;;;5051061;28;20065;-75
2021/07/24 13:18:24;;;;;;;9.38;7.57;;;;;;;;;;5050117;28;20025;-74
2021/07/24 13:20:49;;;;;;;9.70;8.05;;;;;;;;;;5051444;28;20025;-74
2021/07/24 13:23:16;;;;;;;13.07;8.80;;;;;;;;;;5051696;28;20353;-74
2021/07/24 13:28:17;;;;;;;10.60;7.90;;;;;;;;;;5051344;28;20061;-74
2021/07/24 13:30:45;;;;;;;12.88;7.53;;;;;;;;;;5051458;28;20163;-74
2021/07/24 13:33:12;;;;;;;12.45;8.80;;;;;;;;;;5049885;28;20555;-74
2021/07/24 13:35:37;;;;;;;11.55;8.63;;;;;;;;;;5051186;28;20053;-74
2021/07/24 13:38:04;;;;;;;9.82;7.75;;;;;;;;;;5050964;28;20031;-74
2021/07/24 13:40:30;;;;;;;10.18;8.30;;;;;;;;;;5049488;28;20028;-74
2021/07/24 13:43:00;;;;;;;13.27;9.02;;;;;;;;;;5049585;28;20029;-74
2021/07/24 13:45:26;;;;;;;;;;;;;;;;;;5051688;28;20025;-75
2021/07/24 13:47:51;;;;;;;13.18;8.90;;;;;;;;;;5049446;28;19958;-74
2021/07/24 13:50:17;;;;;;;9.73;7.85;;;;;;;;;;5049371;28;20021;-74
2021/07/24 13:52:42;;;;;;;9.77;8.10;;;;;;;;;;5049645;28;20546;-74
2021/07/24 13:55:08;;;;;;;15.77;9.13;;;;;;;;;;5049481;28;20319;-74
2021/07/24 13:57:39;;;;;;;10.52;8.60;;;;;;;;;;5049603;28;20059;-74
2021/07/24 14:00:06;;;;;;;11.18;8.23;;;;;;;;;;5048901;28;20021;-74
2021/07/24 14:02:33;;;;;;;19.92;15.60;;;;;;;;;;5049188;28;20110;-74
2021/07/24 14:04:58;;;;;;;10.90;7.50;;;;;;;;;;5065757;28;20024;-73
2021/07/24 14:07:24;;;;;;;10.98;7.78;;;;;;;;;;5050554;28;20051;-74
2021/07/24 14:09:49;;;;;;;11.85;8.50;;;;;;;;;;5049148;28;20044;-74
2021/07/24 14:12:15;;;;;;;14.48;7.68;;;;;;;;;;5048876;28;20036;-74
2021/07/24 14:14:40;;;;;;;10.13;6.88;;;;;;;;;;5048943;28;20124;-74
2021/07/24 14:17:06;;;;;;;10.90;8.05;;;;;;;;;;5048792;28;20029;-74
2021/07/24 14:19:31;;;;;;;8.63;7.07;;;;;;;;;;5050083;28;20029;-73
2021/07/24 14:21:57;;;;;;;8.10;7.25;;;;;;;;;;5050163;28;20036;-75
2021/07/24 14:24:22;;;;;;;16.00;8.18;;;;;;;;;;5048739;28;20039;-74
2021/07/24 14:26:48;;;;;;;10.43;7.82;;;;;;;;;;5050182;28;20044;-74
2021/07/24 14:29:13;;;;;;;11.50;7.80;;;;;;;;;;5048485;28;20112;-74
2021/07/24 14:31:41;;;;;;;11.82;9.65;;;;;;;;;;5049902;28;20388;-73